| Date | Time | Temp. (oF) | Dew Point (oF) | Rel. Hum. (%) | Press. (in.) | Wind Dir. (deg.) | Wind Speed (mph) | Hourly Rainfall (i n.) |
|
|---|---|---|---|---|---|---|---|---|---|
| 1 | 09/10 | 24:00 | 69 | 67 | 95 | 30.02 | 300 | 1 | 0.00 |
| 2 | 09/09 | 23:00 | 69 | 67 | 95 | 30.03 | 290 | 1 | 0.00 |
| 3 | 09/09 | 22:00 | 69 | 67 | 95 | 30.03 | 130 | 2 | 0.04 |
| 4 | 09/09 | 21:00 | 70 | 68 | 95 | 30.08 | 130 | 1 | 0.04 |
| 5 | 09/09 | 20:00 | 70 | 68 | 94 | 30.03 | 150 | 0 | 0.06 |
| 6 | 09/09 | 19:00 | 71 | 68 | 92 | 30.00 | 290 | 4 | 0.49 |
| 7 | 09/09 | 18:00 | 78 | 72 | 82 | 30.02 | 330 | 6 | 0.02 |
| 8 | 09/09 | 17:00 | 82 | 71 | 70 | 30.03 | 150 | 6 | 0.00 |
| 9 | 09/09 | 16:00 | 83 | 71 | 69 | 30.04 | 160 | 6 | 0.00 |
| 10 | 09/09 | 15:00 | 84 | 71 | 67 | 30.05 | 210 | 10 | 0.00 |
| 11 | 09/09 | 14:00 | 84 | 71 | 66 | 30.04 | 130 | 9 | 0.00 |
| 12 | 09/09 | 13:00 | 83 | 72 | 70 | 30.05 | 130 | 1 | 0.00 |
| 13 | 09/09 | 12:00 | 80 | 71 | 76 | 30.06 | 130 | 2 | 0.00 |
| 14 | 09/09 | 11:00 | 77 | 70 | 80 | 30.06 | 130 | 2 | 0.00 |
| 15 | 09/09 | 10:00 | 73 | 68 | 87 | 30.05 | 140 | 0 | 0.00 |
| 16 | 09/09 | 09:00 | 75 | 68 | 80 | 30.04 | 130 | 0 | 0.00 |
| 17 | 09/09 | 08:00 | 73 | 67 | 82 | 30.03 | 130 | 0 | 0.00 |
| 18 | 09/09 | 07:00 | 69 | 65 | 89 | 30.05 | 130 | 0 | 0.00 |
| 19 | 09/09 | 06:00 | 70 | 63 | 81 | 30.04 | 310 | 1 | 0.00 |
| 20 | 09/09 | 05:00 | 69 | 63 | 82 | 30.04 | 310 | 0 | 0.00 |
| 21 | 09/09 | 04:00 | 70 | 63 | 81 | 30.03 | 310 | 0 | 0.00 |
| 22 | 09/09 | 03:00 | 72 | 64 | 77 | 30.04 | 310 | 0 | 0.00 |
| 23 | 09/09 | 02:00 | 72 | 64 | 77 | 30.06 | 310 | 0 | 0.00 |
| 24 | 09/09 | 01:00 | 73 | 65 | 77 | 30.06 | 310 | 0 | 0.00 |